Richmond, Virginia
Current Conditions -  °F | °C
As of 11:54 PM on Friday 19 Dec 2014 (Local Time) from KRIC Reporting Station
Scattered Clouds Scattered Clouds  
Wind Chill: 26°   Ceiling: Unl
Heat Index: 31°   Visibility: 10mi
Dew Point: 21°   Wind: 5mph
Humidity: 67%   Direction: 20°NNE
Pressure: 30.26"   Gusts: NA
Location:  37.54°N, 77.43°W
Report Text: KRIC 200454Z 02004KT 10SM SCT300 M01/M06 A3026 RMK AO2 SLP251 T10061061 400831006
Loading
Personal Weather Stations






























Interactive Weather Map New forecast layout! Learn more

10-Day Weather Forecast

Advertisements
Track Severe Weather on mobile